Gregg, Texas
Current Conditions -  °F | °C
As of 4:15 AM on Sunday 26 Oct 2014 (Local Time) from KEDC Reporting Station
Broken Clouds Broken Clouds  
Wind Chill: 59°   Ceiling: 3200
Heat Index: 59°   Visibility: 10mi
Dew Point: 57°   Wind: 6mph
Humidity: 94%   Direction: 200°SSW
Pressure: 30.06"   Gusts: NA
Location:  30.352°N, 97.5205°W
Report Text: KEDC 260915Z AUTO 20005KT 10SM BKN032 15/14 A3006 RMK AO2
Loading
Personal Weather Stations






























Interactive Weather Map
Tropical Storm Tracking
New forecast layout! Learn more

10-Day Weather Forecast

Advertisements
Track Severe Weather on mobile